Time;durP1;ratioP1;P1;durP2;ratioP2;P2;SDS_P1;SDS_P2;PMS_P1;PMS_P2;Temp;Humidity;BMP_temperature;BMP_pressure;BME280_temperature;BME280_humidity;BME280_pressure;Samples;Min_cycle;Max_cycle;Signal;HPM_P1;HPM_P2
2021/12/11 00:01:53;;;;;;;0.00;0.00;;;;;;;;;;5040375;28;20199;-78
2021/12/11 00:04:23;;;;;;;0.00;0.00;;;;;;;;;;5048444;28;20207;-77
2021/12/11 00:06:53;;;;;;;0.57;0.03;;;;;;;;;;5048190;28;20661;-78
2021/12/11 00:09:21;;;;;;;0.00;0.00;;;;;;;;;;5044675;28;20223;-79
2021/12/11 00:11:50;;;;;;;0.00;0.00;;;;;;;;;;5046754;28;20228;-77
2021/12/11 00:14:18;;;;;;;0.00;0.00;;;;;;;;;;5044435;28;20568;-78
2021/12/11 00:16:47;;;;;;;0.00;0.00;;;;;;;;;;5040583;28;20203;-75
2021/12/11 00:19:16;;;;;;;0.00;0.00;;;;;;;;;;5044818;28;20207;-77
2021/12/11 00:21:44;;;;;;;0.00;0.00;;;;;;;;;;5042522;28;20211;-78
2021/12/11 00:24:14;;;;;;;0.00;0.00;;;;;;;;;;5044272;28;20199;-78
2021/12/11 00:26:43;;;;;;;0.00;0.00;;;;;;;;;;5044432;28;20578;-78
2021/12/11 00:29:11;;;;;;;0.00;0.00;;;;;;;;;;5046258;28;20208;-79
2021/12/11 00:31:43;;;;;;;0.27;0.17;;;;;;;;;;5042620;28;20227;-79
2021/12/11 00:34:14;;;;;;;0.00;0.00;;;;;;;;;;5048941;28;20819;-78
2021/12/11 00:36:42;;;;;;;1.67;0.10;;;;;;;;;;5039405;28;20231;-77
2021/12/11 00:39:12;;;;;;;0.00;0.00;;;;;;;;;;5042087;28;20248;-79
2021/12/11 00:41:40;;;;;;;0.00;0.00;;;;;;;;;;5040932;28;20252;-79
2021/12/11 00:44:08;;;;;;;0.00;0.00;;;;;;;;;;5043273;28;20203;-76
2021/12/11 00:46:35;;;;;;;0.00;0.00;;;;;;;;;;5043206;28;20204;-78
2021/12/11 00:49:10;;;;;;;0.10;0.00;;;;;;;;;;5042154;28;20211;-78
2021/12/11 00:51:39;;;;;;;0.00;0.00;;;;;;;;;;5042079;28;20322;-78
2021/12/11 00:54:07;;;;;;;0.00;0.00;;;;;;;;;;5043073;28;20286;-77
2021/12/11 00:56:35;;;;;;;0.00;0.00;;;;;;;;;;5040746;28;20218;-77
2021/12/11 00:59:05;;;;;;;0.40;0.27;;;;;;;;;;5044459;28;20591;-77
2021/12/11 01:01:34;;;;;;;1.70;1.17;;;;;;;;;;5045141;28;20200;-77
2021/12/11 01:04:05;;;;;;;0.00;0.00;;;;;;;;;;5044881;28;20199;-77
2021/12/11 01:06:34;;;;;;;0.00;0.00;;;;;;;;;;5049330;28;20203;-77
2021/12/11 01:09:05;;;;;;;0.00;0.00;;;;;;;;;;5043934;28;20252;-77
2021/12/11 01:11:35;;;;;;;0.00;0.00;;;;;;;;;;5044877;28;21169;-77
2021/12/11 01:14:11;;;;;;;0.00;0.00;;;;;;;;;;5042283;28;20493;-77
2021/12/11 01:16:40;;;;;;;0.20;0.10;;;;;;;;;;5042041;28;20203;-77
2021/12/11 01:19:16;;;;;;;0.00;0.00;;;;;;;;;;5044154;28;20286;-76
2021/12/11 01:21:55;;;;;;;0.97;0.73;;;;;;;;;;5047143;28;20261;-79
2021/12/11 01:24:30;;;;;;;2.40;0.33;;;;;;;;;;5041651;28;20200;-80
2021/12/11 01:26:59;;;;;;;0.07;0.07;;;;;;;;;;5043670;28;20207;-77
2021/12/11 01:29:27;;;;;;;0.00;0.00;;;;;;;;;;5043613;28;20203;-77
2021/12/11 01:31:56;;;;;;;0.87;0.37;;;;;;;;;;5042971;28;20227;-75
2021/12/11 01:34:24;;;;;;;0.33;0.33;;;;;;;;;;5042351;28;20290;-78
2021/12/11 01:36:52;;;;;;;0.00;0.00;;;;;;;;;;5049754;28;20204;-78
2021/12/11 01:39:21;;;;;;;0.00;0.00;;;;;;;;;;5042155;28;20610;-77
2021/12/11 01:41:50;;;;;;;0.00;0.00;;;;;;;;;;5043184;28;20220;-77
2021/12/11 01:44:20;;;;;;;0.50;0.20;;;;;;;;;;5043714;28;20207;-76
2021/12/11 01:46:49;;;;;;;0.13;0.13;;;;;;;;;;5043447;28;22131;-76
2021/12/11 01:49:17;;;;;;;0.00;0.00;;;;;;;;;;5042485;28;20200;-77
2021/12/11 01:51:47;;;;;;;0.00;0.00;;;;;;;;;;5042245;28;20232;-79
2021/12/11 01:54:17;;;;;;;0.00;0.00;;;;;;;;;;5043294;28;20207;-78
2021/12/11 01:56:48;;;;;;;0.00;0.00;;;;;;;;;;5042615;28;20206;-78
2021/12/11 01:59:19;;;;;;;0.00;0.00;;;;;;;;;;5042786;28;20204;-77
2021/12/11 02:01:47;;;;;;;0.00;0.00;;;;;;;;;;5041956;28;20592;-78
2021/12/11 02:04:16;;;;;;;0.40;0.10;;;;;;;;;;5043919;28;20655;-77
2021/12/11 02:06:45;;;;;;;0.00;0.00;;;;;;;;;;5041261;28;20195;-78
2021/12/11 02:09:17;;;;;;;3.47;0.73;;;;;;;;;;5042366;28;20210;-78
2021/12/11 02:11:46;;;;;;;0.00;0.00;;;;;;;;;;5043810;28;20306;-77
2021/12/11 02:14:16;;;;;;;0.00;0.00;;;;;;;;;;5041420;28;20807;-77
2021/12/11 02:16:48;;;;;;;0.00;0.00;;;;;;;;;;5041525;28;20204;-77
2021/12/11 02:19:17;;;;;;;0.00;0.00;;;;;;;;;;5041111;28;20257;-76
2021/12/11 02:21:50;;;;;;;0.00;0.00;;;;;;;;;;5043565;28;20242;-76
2021/12/11 02:24:24;;;;;;;0.00;0.00;;;;;;;;;;5041309;28;20207;-76
2021/12/11 02:26:52;;;;;;;0.00;0.00;;;;;;;;;;5042341;28;20708;-76
2021/12/11 02:29:23;;;;;;;0.00;0.00;;;;;;;;;;5046276;28;20196;-75
2021/12/11 02:31:53;;;;;;;0.00;0.00;;;;;;;;;;5048438;28;20750;-76
2021/12/11 02:34:22;;;;;;;0.00;0.00;;;;;;;;;;5040370;28;20222;-76
2021/12/11 02:36:54;;;;;;;0.00;0.00;;;;;;;;;;5041559;28;20199;-77
2021/12/11 02:39:24;;;;;;;0.00;0.00;;;;;;;;;;5043353;28;20287;-75
2021/12/11 02:41:54;;;;;;;0.00;0.00;;;;;;;;;;5045739;28;20196;-76
2021/12/11 02:44:24;;;;;;;0.00;0.00;;;;;;;;;;5046102;28;20210;-76
2021/12/11 02:46:54;;;;;;;0.00;0.00;;;;;;;;;;5046423;28;20220;-76
2021/12/11 02:49:23;;;;;;;0.00;0.00;;;;;;;;;;5045809;28;20203;-76
2021/12/11 02:51:56;;;;;;;0.00;0.00;;;;;;;;;;5042648;28;20235;-76
2021/12/11 02:54:28;;;;;;;0.00;0.00;;;;;;;;;;5044914;28;20208;-76
2021/12/11 02:56:57;;;;;;;0.00;0.00;;;;;;;;;;5046504;28;20668;-77
2021/12/11 02:59:28;;;;;;;0.00;0.00;;;;;;;;;;5048248;28;20199;-77
2021/12/11 03:01:57;;;;;;;0.00;0.00;;;;;;;;;;5050230;28;20600;-78
2021/12/11 03:04:31;;;;;;;0.00;0.00;;;;;;;;;;5045607;28;20206;-78
2021/12/11 03:07:03;;;;;;;0.00;0.00;;;;;;;;;;5044843;28;20203;-78
2021/12/11 03:09:32;;;;;;;0.00;0.00;;;;;;;;;;5043109;28;20203;-77
2021/12/11 03:12:03;;;;;;;0.00;0.00;;;;;;;;;;5047312;28;20238;-77
2021/12/11 03:14:31;;;;;;;0.00;0.00;;;;;;;;;;5046216;28;20207;-77
2021/12/11 03:16:58;;;;;;;0.00;0.00;;;;;;;;;;5047564;28;20207;-77
2021/12/11 03:19:29;;;;;;;0.00;0.00;;;;;;;;;;5050592;28;20203;-78
2021/12/11 03:21:57;;;;;;;0.00;0.00;;;;;;;;;;5045019;28;20716;-76
2021/12/11 03:24:27;;;;;;;0.00;0.00;;;;;;;;;;5043318;28;20206;-78
2021/12/11 03:26:55;;;;;;;0.00;0.00;;;;;;;;;;5044184;28;20210;-77
2021/12/11 03:29:23;;;;;;;0.00;0.00;;;;;;;;;;5046790;28;20222;-77
2021/12/11 03:31:51;;;;;;;0.00;0.00;;;;;;;;;;5045442;28;20239;-77
2021/12/11 03:34:19;;;;;;;0.00;0.00;;;;;;;;;;5042920;28;20207;-77
2021/12/11 03:36:47;;;;;;;1.47;0.43;;;;;;;;;;5042901;28;20199;-77
2021/12/11 03:39:16;;;;;;;0.00;0.00;;;;;;;;;;5045917;28;20207;-77
2021/12/11 03:41:46;;;;;;;0.00;0.00;;;;;;;;;;5046065;28;20976;-77
2021/12/11 03:44:14;;;;;;;0.00;0.00;;;;;;;;;;5043605;28;20208;-76
2021/12/11 03:46:41;;;;;;;0.00;0.00;;;;;;;;;;5044719;28;20556;-75
2021/12/11 03:49:12;;;;;;;0.00;0.00;;;;;;;;;;5050343;28;20192;-76
2021/12/11 03:51:40;;;;;;;0.00;0.00;;;;;;;;;;5049965;28;20227;-77
2021/12/11 03:54:10;;;;;;;0.00;0.00;;;;;;;;;;5050152;28;20215;-77
2021/12/11 03:56:38;;;;;;;0.00;0.00;;;;;;;;;;5052148;28;20204;-76
2021/12/11 03:59:10;;;;;;;0.00;0.00;;;;;;;;;;5050833;28;20301;-76
2021/12/11 04:01:40;;;;;;;0.00;0.00;;;;;;;;;;5050672;28;20207;-77
2021/12/11 04:04:12;;;;;;;0.00;0.00;;;;;;;;;;5050585;28;20290;-77
2021/12/11 04:06:39;;;;;;;0.00;0.00;;;;;;;;;;5050512;28;20752;-77
2021/12/11 04:09:08;;;;;;;0.00;0.00;;;;;;;;;;5050686;28;20672;-77
2021/12/11 04:11:37;;;;;;;0.00;0.00;;;;;;;;;;5044490;28;20234;-77
2021/12/11 04:14:07;;;;;;;0.00;0.00;;;;;;;;;;5049128;28;20586;-76
2021/12/11 04:16:36;;;;;;;0.00;0.00;;;;;;;;;;5050344;28;20683;-76
2021/12/11 04:19:04;;;;;;;0.00;0.00;;;;;;;;;;5050365;28;20218;-76
2021/12/11 04:21:32;;;;;;;0.00;0.00;;;;;;;;;;5050876;28;20195;-76
2021/12/11 04:23:59;;;;;;;1.30;0.83;;;;;;;;;;5049521;28;20210;-75
2021/12/11 04:26:27;;;;;;;0.00;0.00;;;;;;;;;;5048752;28;20207;-75
2021/12/11 04:28:54;;;;;;;0.00;0.00;;;;;;;;;;5049629;28;21002;-75
2021/12/11 04:31:24;;;;;;;0.00;0.00;;;;;;;;;;5050071;28;20710;-75
2021/12/11 04:33:54;;;;;;;0.00;0.00;;;;;;;;;;5047698;28;20204;-76
2021/12/11 04:36:23;;;;;;;0.00;0.00;;;;;;;;;;5048633;28;20218;-76
2021/12/11 04:38:52;;;;;;;1.03;1.03;;;;;;;;;;5049861;28;20695;-78
2021/12/11 04:41:23;;;;;;;0.00;0.00;;;;;;;;;;5048963;28;20228;-77
2021/12/11 04:43:51;;;;;;;0.00;0.00;;;;;;;;;;5047999;28;20223;-77
2021/12/11 04:46:19;;;;;;;0.07;0.07;;;;;;;;;;5046794;28;20657;-76
2021/12/11 04:48:55;;;;;;;0.37;0.37;;;;;;;;;;5047851;28;20200;-75
2021/12/11 04:51:28;;;;;;;0.00;0.00;;;;;;;;;;5049312;28;20630;-76
2021/12/11 04:54:06;;;;;;;0.20;0.20;;;;;;;;;;5050421;28;20206;-76
2021/12/11 04:59:40;;;;;;;0.00;0.00;;;;;;;;;;5041339;28;20204;-76
2021/12/11 05:02:19;;;;;;;0.00;0.00;;;;;;;;;;5048492;28;20286;-76
2021/12/11 05:05:01;;;;;;;0.00;0.00;;;;;;;;;;5044866;28;20207;-76
2021/12/11 05:07:36;;;;;;;0.00;0.00;;;;;;;;;;5042167;28;20290;-76
2021/12/11 05:10:13;;;;;;;0.00;0.00;;;;;;;;;;5042319;28;20206;-75
2021/12/11 05:12:40;;;;;;;0.00;0.00;;;;;;;;;;5047649;28;20223;-76
2021/12/11 05:15:10;;;;;;;0.00;0.00;;;;;;;;;;5042820;28;20570;-76
2021/12/11 05:17:38;;;;;;;0.00;0.00;;;;;;;;;;5042258;28;20204;-76
2021/12/11 05:20:07;;;;;;;0.00;0.00;;;;;;;;;;5048785;28;20203;-78
2021/12/11 05:22:35;;;;;;;0.00;0.00;;;;;;;;;;5044925;28;20207;-76
2021/12/11 05:25:05;;;;;;;0.00;0.00;;;;;;;;;;5044363;28;20203;-77
2021/12/11 05:27:33;;;;;;;0.00;0.00;;;;;;;;;;5041950;28;20222;-77
2021/12/11 05:30:00;;;;;;;0.00;0.00;;;;;;;;;;5043275;28;20230;-77
2021/12/11 05:32:29;;;;;;;0.00;0.00;;;;;;;;;;5042930;28;20231;-77
2021/12/11 05:34:57;;;;;;;0.00;0.00;;;;;;;;;;5042926;28;20250;-76
2021/12/11 05:37:26;;;;;;;0.00;0.00;;;;;;;;;;5042502;28;20211;-76
2021/12/11 05:39:53;;;;;;;0.00;0.00;;;;;;;;;;5040528;28;21254;-76
2021/12/11 05:42:22;;;;;;;0.00;0.00;;;;;;;;;;5042196;28;20231;-76
2021/12/11 05:44:50;;;;;;;0.00;0.00;;;;;;;;;;5042409;28;20285;-76
2021/12/11 05:47:17;;;;;;;0.00;0.00;;;;;;;;;;5041507;28;20668;-76
2021/12/11 05:49:46;;;;;;;0.00;0.00;;;;;;;;;;5045331;28;20295;-76
2021/12/11 05:52:14;;;;;;;0.00;0.00;;;;;;;;;;5042053;28;20710;-76
2021/12/11 05:54:44;;;;;;;0.00;0.00;;;;;;;;;;5040873;28;20204;-76
2021/12/11 05:57:13;;;;;;;0.00;0.00;;;;;;;;;;5042512;28;20557;-76
2021/12/11 05:59:43;;;;;;;0.00;0.00;;;;;;;;;;5043511;28;20273;-76
2021/12/11 06:02:12;;;;;;;0.00;0.00;;;;;;;;;;5041630;28;20203;-76
2021/12/11 06:04:41;;;;;;;0.00;0.00;;;;;;;;;;5041049;28;20214;-75
2021/12/11 06:07:10;;;;;;;0.00;0.00;;;;;;;;;;5044070;28;20219;-76
2021/12/11 06:09:39;;;;;;;0.00;0.00;;;;;;;;;;5041340;28;20211;-75
2021/12/11 06:12:08;;;;;;;0.00;0.00;;;;;;;;;;5043799;28;20231;-76
2021/12/11 06:14:37;;;;;;;0.00;0.00;;;;;;;;;;5047876;28;20196;-75
2021/12/11 06:17:07;;;;;;;0.00;0.00;;;;;;;;;;5051519;28;20210;-77
2021/12/11 06:19:35;;;;;;;0.00;0.00;;;;;;;;;;5048498;28;20579;-75
2021/12/11 06:22:03;;;;;;;0.00;0.00;;;;;;;;;;5051758;28;20211;-75
2021/12/11 06:24:31;;;;;;;0.00;0.00;;;;;;;;;;5046058;28;20192;-76
2021/12/11 06:26:59;;;;;;;0.00;0.00;;;;;;;;;;5045733;28;20222;-75
2021/12/11 06:29:27;;;;;;;0.00;0.00;;;;;;;;;;5048347;28;20519;-76
2021/12/11 06:31:56;;;;;;;0.10;0.10;;;;;;;;;;5045738;28;20202;-75
2021/12/11 06:34:25;;;;;;;0.00;0.00;;;;;;;;;;5045148;28;20199;-76
2021/12/11 06:36:52;;;;;;;0.00;0.00;;;;;;;;;;5045693;28;20200;-77
2021/12/11 06:39:21;;;;;;;0.00;0.00;;;;;;;;;;5045879;28;20208;-75
2021/12/11 06:41:50;;;;;;;0.00;0.00;;;;;;;;;;5047082;28;20199;-75
2021/12/11 06:44:18;;;;;;;0.00;0.00;;;;;;;;;;5044746;28;20204;-74
2021/12/11 06:46:45;;;;;;;0.10;0.10;;;;;;;;;;5047078;28;20204;-74
2021/12/11 06:49:13;;;;;;;0.00;0.00;;;;;;;;;;5045811;28;20211;-75
2021/12/11 06:51:42;;;;;;;0.00;0.00;;;;;;;;;;5051076;28;20204;-76
2021/12/11 06:54:11;;;;;;;0.00;0.00;;;;;;;;;;5049178;28;20334;-76
2021/12/11 06:56:39;;;;;;;0.37;0.30;;;;;;;;;;5045797;28;20670;-76
2021/12/11 06:59:08;;;;;;;3.87;1.30;;;;;;;;;;5047186;28;20572;-76
2021/12/11 07:01:36;;;;;;;0.00;0.00;;;;;;;;;;5044231;28;20200;-75
2021/12/11 07:04:06;;;;;;;0.00;0.00;;;;;;;;;;5045127;28;20202;-77
2021/12/11 07:06:35;;;;;;;0.20;0.20;;;;;;;;;;5044819;28;20208;-75
2021/12/11 07:09:06;;;;;;;0.00;0.00;;;;;;;;;;5044863;28;20211;-75
2021/12/11 07:11:34;;;;;;;0.07;0.07;;;;;;;;;;5044640;28;20199;-77
2021/12/11 07:14:01;;;;;;;0.00;0.00;;;;;;;;;;5045476;28;20228;-76
2021/12/11 07:16:29;;;;;;;0.00;0.00;;;;;;;;;;5045712;28;20208;-76
2021/12/11 07:18:57;;;;;;;0.10;0.10;;;;;;;;;;5044461;28;20196;-77
2021/12/11 07:21:24;;;;;;;0.10;0.10;;;;;;;;;;5044492;28;20210;-76
2021/12/11 07:23:52;;;;;;;0.23;0.23;;;;;;;;;;5045433;28;20589;-76
2021/12/11 07:26:28;;;;;;;0.10;0.10;;;;;;;;;;5043745;28;20206;-76
2021/12/11 07:28:56;;;;;;;0.00;0.00;;;;;;;;;;5044242;28;20695;-76
2021/12/11 07:31:25;;;;;;;0.53;0.43;;;;;;;;;;5049550;28;20211;-75
2021/12/11 07:33:53;;;;;;;0.23;0.23;;;;;;;;;;5045184;28;20247;-76
2021/12/11 07:36:20;;;;;;;0.10;0.10;;;;;;;;;;5047986;28;20203;-76
2021/12/11 07:38:48;;;;;;;0.00;0.00;;;;;;;;;;5050888;28;20253;-76
2021/12/11 07:41:17;;;;;;;0.00;0.00;;;;;;;;;;5050378;28;20223;-76
2021/12/11 07:43:46;;;;;;;0.20;0.20;;;;;;;;;;5050557;28;20585;-76
2021/12/11 07:46:15;;;;;;;0.10;0.10;;;;;;;;;;5050314;28;20580;-76
2021/12/11 07:48:43;;;;;;;0.87;0.87;;;;;;;;;;5047460;28;20195;-72
2021/12/11 07:51:10;;;;;;;0.07;0.07;;;;;;;;;;5051660;28;20314;-78
2021/12/11 07:53:38;;;;;;;0.00;0.00;;;;;;;;;;5051144;28;20224;-77
2021/12/11 07:56:06;;;;;;;0.00;0.00;;;;;;;;;;5040312;28;20208;-75
2021/12/11 07:58:34;;;;;;;0.00;0.00;;;;;;;;;;5043500;28;20211;-78
2021/12/11 08:01:05;;;;;;;0.00;0.00;;;;;;;;;;5043800;28;20200;-79
2021/12/11 08:03:33;;;;;;;0.00;0.00;;;;;;;;;;5044943;28;20211;-76
2021/12/11 08:06:00;;;;;;;0.00;0.00;;;;;;;;;;5044211;28;20207;-78
2021/12/11 08:08:28;;;;;;;0.00;0.00;;;;;;;;;;5044150;28;20222;-77
2021/12/11 08:10:57;;;;;;;0.10;0.10;;;;;;;;;;5042963;28;20227;-77
2021/12/11 08:13:25;;;;;;;0.00;0.00;;;;;;;;;;5044941;28;20246;-77
2021/12/11 08:15:54;;;;;;;0.00;0.00;;;;;;;;;;5045458;28;20208;-77
2021/12/11 08:18:24;;;;;;;0.00;0.00;;;;;;;;;;5043578;28;20200;-76
2021/12/11 08:20:51;;;;;;;0.30;0.30;;;;;;;;;;5042742;28;20203;-76
2021/12/11 08:23:20;;;;;;;0.30;0.30;;;;;;;;;;5044431;28;20204;-75
2021/12/11 08:25:48;;;;;;;0.17;0.17;;;;;;;;;;5043933;28;20214;-76
2021/12/11 08:28:16;;;;;;;0.00;0.00;;;;;;;;;;5042680;28;20253;-81
2021/12/11 08:30:45;;;;;;;0.50;0.50;;;;;;;;;;5041443;28;20602;-77
2021/12/11 08:33:13;;;;;;;0.17;0.17;;;;;;;;;;5042657;28;21015;-77
2021/12/11 08:35:42;;;;;;;0.00;0.00;;;;;;;;;;5044207;28;20215;-76
2021/12/11 08:38:09;;;;;;;0.00;0.00;;;;;;;;;;5044228;28;20207;-77
2021/12/11 08:40:38;;;;;;;0.00;0.00;;;;;;;;;;5044752;28;20297;-76
2021/12/11 08:43:06;;;;;;;0.00;0.00;;;;;;;;;;5045460;28;20223;-79
2021/12/11 08:45:45;;;;;;;0.00;0.00;;;;;;;;;;5045312;28;20199;-76
2021/12/11 08:48:14;;;;;;;0.00;0.00;;;;;;;;;;5041404;28;20199;-78
2021/12/11 08:50:43;;;;;;;0.13;0.13;;;;;;;;;;5033252;28;20673;-75
2021/12/11 08:53:11;;;;;;;0.20;0.20;;;;;;;;;;5035502;28;20278;-77
2021/12/11 08:55:40;;;;;;;0.07;0.07;;;;;;;;;;5032682;28;20210;-75
2021/12/11 08:58:08;;;;;;;0.07;0.07;;;;;;;;;;5033143;28;20200;-76
2021/12/11 09:00:39;;;;;;;0.50;0.23;;;;;;;;;;5031693;28;20212;-74
2021/12/11 09:03:09;;;;;;;0.10;0.10;;;;;;;;;;5036867;28;20219;-76
2021/12/11 09:05:39;;;;;;;1.13;0.43;;;;;;;;;;5038012;28;20223;-75
2021/12/11 09:08:12;;;;;;;0.00;0.00;;;;;;;;;;5034999;28;20291;-76
2021/12/11 09:10:41;;;;;;;0.00;0.00;;;;;;;;;;5039614;28;20287;-75
2021/12/11 09:13:11;;;;;;;0.00;0.00;;;;;;;;;;5041201;28;20242;-75
2021/12/11 09:15:41;;;;;;;0.43;0.43;;;;;;;;;;5039895;28;20216;-75
2021/12/11 09:18:10;;;;;;;0.60;0.40;;;;;;;;;;5043472;28;20660;-74
2021/12/11 09:20:41;;;;;;;2.13;0.37;;;;;;;;;;5039484;28;20207;-75
2021/12/11 09:23:13;;;;;;;0.13;0.13;;;;;;;;;;5039499;28;20199;-75
2021/12/11 09:25:43;;;;;;;1.47;1.30;;;;;;;;;;5039193;28;20213;-74
2021/12/11 09:28:12;;;;;;;0.27;0.27;;;;;;;;;;5040660;28;20208;-73
2021/12/11 09:30:41;;;;;;;0.00;0.00;;;;;;;;;;5040121;28;20561;-75
2021/12/11 09:33:10;;;;;;;0.13;0.13;;;;;;;;;;5039797;28;20227;-74
2021/12/11 09:35:41;;;;;;;0.53;0.30;;;;;;;;;;5039732;28;20225;-74
2021/12/11 09:38:10;;;;;;;0.73;0.43;;;;;;;;;;5041224;28;20192;-74
2021/12/11 09:40:58;;;;;;;0.00;0.00;;;;;;;;;;5038161;28;20242;-74
2021/12/11 09:43:34;;;;;;;0.23;0.23;;;;;;;;;;5040238;28;20308;-74
2021/12/11 09:46:01;;;;;;;0.40;0.20;;;;;;;;;;5040755;28;20295;-73
2021/12/11 09:48:29;;;;;;;0.53;0.37;;;;;;;;;;5042519;28;20206;-74
2021/12/11 09:51:02;;;;;;;0.30;0.30;;;;;;;;;;5039947;28;20204;-72
2021/12/11 09:53:31;;;;;;;0.00;0.00;;;;;;;;;;5040681;28;20227;-74
2021/12/11 09:55:58;;;;;;;0.30;0.30;;;;;;;;;;5035266;28;20208;-74
2021/12/11 09:58:28;;;;;;;0.07;0.07;;;;;;;;;;5031701;28;20703;-75
2021/12/11 10:00:59;;;;;;;0.00;0.00;;;;;;;;;;5034745;28;20564;-72
2021/12/11 10:03:27;;;;;;;0.00;0.00;;;;;;;;;;5035383;28;20304;-76
2021/12/11 10:05:56;;;;;;;6.23;0.40;;;;;;;;;;5034075;28;20207;-73
2021/12/11 10:08:28;;;;;;;0.00;0.00;;;;;;;;;;5032526;28;20297;-73
2021/12/11 10:10:58;;;;;;;0.20;0.20;;;;;;;;;;5034366;28;20609;-75
2021/12/11 10:13:26;;;;;;;0.23;0.23;;;;;;;;;;5032008;28;20314;-73
2021/12/11 10:15:54;;;;;;;0.00;0.00;;;;;;;;;;5031098;28;20200;-72
2021/12/11 10:18:25;;;;;;;0.47;0.43;;;;;;;;;;5032114;28;20196;-73
2021/12/11 10:20:55;;;;;;;0.10;0.10;;;;;;;;;;5031907;28;20557;-73
2021/12/11 10:23:26;;;;;;;1.80;0.97;;;;;;;;;;5031485;28;20199;-72
2021/12/11 10:25:54;;;;;;;0.20;0.20;;;;;;;;;;5033317;28;20207;-74
2021/12/11 10:28:23;;;;;;;0.63;0.63;;;;;;;;;;5035516;28;20207;-71
2021/12/11 10:30:52;;;;;;;0.13;0.13;;;;;;;;;;5037546;28;20239;-70
2021/12/11 10:33:20;;;;;;;0.33;0.33;;;;;;;;;;5034681;28;20985;-70
2021/12/11 10:35:52;;;;;;;0.20;0.20;;;;;;;;;;5058965;28;20204;-74
2021/12/11 10:38:20;;;;;;;0.00;0.00;;;;;;;;;;5043214;28;20203;-75
2021/12/11 10:40:49;;;;;;;2.93;0.63;;;;;;;;;;5038979;28;20223;-73
2021/12/11 10:43:18;;;;;;;0.00;0.00;;;;;;;;;;5038537;28;20211;-74
2021/12/11 10:45:46;;;;;;;0.57;0.50;;;;;;;;;;5041112;28;20203;-74
2021/12/11 10:48:22;;;;;;;0.00;0.00;;;;;;;;;;5054506;28;20215;-70
2021/12/11 10:50:56;;;;;;;0.53;0.07;;;;;;;;;;5057530;28;20204;-71
2021/12/11 10:53:25;;;;;;;0.30;0.30;;;;;;;;;;5042064;28;20238;-71
2021/12/11 10:55:53;;;;;;;0.30;0.30;;;;;;;;;;5042897;28;20199;-76
2021/12/11 10:58:24;;;;;;;0.87;0.50;;;;;;;;;;5041531;28;20211;-75
2021/12/11 11:00:53;;;;;;;0.77;0.53;;;;;;;;;;5042144;28;20210;-76
2021/12/11 11:03:21;;;;;;;0.30;0.30;;;;;;;;;;5045881;28;20207;-77
2021/12/11 11:05:49;;;;;;;0.00;0.00;;;;;;;;;;5046362;28;20200;-78
2021/12/11 11:08:18;;;;;;;0.10;0.10;;;;;;;;;;5044031;28;20896;-75
2021/12/11 11:10:47;;;;;;;0.10;0.10;;;;;;;;;;5044613;28;20214;-72
2021/12/11 11:13:17;;;;;;;0.30;0.30;;;;;;;;;;5045051;28;20203;-75
2021/12/11 11:15:45;;;;;;;0.50;0.50;;;;;;;;;;5045841;28;20210;-77
2021/12/11 11:18:14;;;;;;;0.20;0.20;;;;;;;;;;5045155;28;20688;-75
2021/12/11 11:20:43;;;;;;;0.07;0.07;;;;;;;;;;5046338;28;20273;-77
2021/12/11 11:23:11;;;;;;;0.10;0.10;;;;;;;;;;5044531;28;20207;-75
2021/12/11 11:25:41;;;;;;;0.47;0.47;;;;;;;;;;5043060;28;20680;-72
2021/12/11 11:28:10;;;;;;;0.10;0.10;;;;;;;;;;5045394;28;20204;-76
2021/12/11 11:30:40;;;;;;;0.10;0.10;;;;;;;;;;5045908;28;20195;-75
2021/12/11 11:33:09;;;;;;;0.10;0.10;;;;;;;;;;5044071;28;20200;-69
2021/12/11 11:35:42;;;;;;;0.00;0.00;;;;;;;;;;5045403;28;20242;-75
2021/12/11 11:38:13;;;;;;;0.27;0.27;;;;;;;;;;5043676;28;20202;-75
2021/12/11 11:40:44;;;;;;;0.73;0.73;;;;;;;;;;5040979;28;20259;-75
2021/12/11 11:43:12;;;;;;;0.63;0.30;;;;;;;;;;5043117;28;20287;-76
2021/12/11 11:45:40;;;;;;;0.00;0.00;;;;;;;;;;5041401;28;20994;-75
2021/12/11 11:48:08;;;;;;;1.80;0.63;;;;;;;;;;5045755;28;20207;-75
2021/12/11 11:50:38;;;;;;;0.97;0.43;;;;;;;;;;5041203;28;20207;-75
2021/12/11 11:53:05;;;;;;;0.00;0.00;;;;;;;;;;5042503;28;20200;-77
2021/12/11 11:55:35;;;;;;;0.27;0.27;;;;;;;;;;5044903;28;20239;-76
2021/12/11 11:58:05;;;;;;;0.40;0.40;;;;;;;;;;5041485;28;20701;-75
2021/12/11 12:00:39;;;;;;;0.40;0.40;;;;;;;;;;5043194;28;20212;-74
2021/12/11 12:03:07;;;;;;;0.57;0.57;;;;;;;;;;5035759;28;20207;-74
2021/12/11 12:05:36;;;;;;;0.10;0.10;;;;;;;;;;5035013;28;20656;-75
2021/12/11 12:08:04;;;;;;;0.10;0.10;;;;;;;;;;5036605;28;20214;-77
2021/12/11 12:10:31;;;;;;;1.30;0.30;;;;;;;;;;5035867;28;20203;-76
2021/12/11 12:12:59;;;;;;;0.10;0.10;;;;;;;;;;5035048;28;20210;-73
2021/12/11 12:15:29;;;;;;;0.70;0.40;;;;;;;;;;5033951;28;20246;-73
2021/12/11 12:17:57;;;;;;;0.07;0.07;;;;;;;;;;5034148;28;20261;-75
2021/12/11 12:20:25;;;;;;;0.03;0.00;;;;;;;;;;5034377;28;20203;-72
2021/12/11 12:22:53;;;;;;;0.07;0.07;;;;;;;;;;5034220;28;20208;-72
2021/12/11 12:25:21;;;;;;;0.37;0.30;;;;;;;;;;5035197;28;21177;-73
2021/12/11 12:27:49;;;;;;;0.00;0.00;;;;;;;;;;5035311;28;20208;-72
2021/12/11 12:30:20;;;;;;;0.10;0.10;;;;;;;;;;5035998;28;20203;-72
2021/12/11 12:32:51;;;;;;;0.10;0.10;;;;;;;;;;5033483;28;20211;-71
2021/12/11 12:35:20;;;;;;;0.07;0.07;;;;;;;;;;5042528;28;20251;-73
2021/12/11 12:37:48;;;;;;;0.15;0.05;;;;;;;;;;5040960;28;20470;-69
2021/12/11 12:40:17;;;;;;;0.00;0.00;;;;;;;;;;5033580;28;20231;-74
2021/12/11 12:42:51;;;;;;;0.10;0.10;;;;;;;;;;5036186;28;20565;-72
2021/12/11 12:45:22;;;;;;;0.47;0.47;;;;;;;;;;5035628;28;20210;-70
2021/12/11 12:47:56;;;;;;;0.83;0.43;;;;;;;;;;5039237;28;20210;-74
2021/12/11 12:50:25;;;;;;;0.43;0.20;;;;;;;;;;5035581;28;20196;-72
2021/12/11 12:52:53;;;;;;;0.53;0.27;;;;;;;;;;5035616;28;20207;-71
2021/12/11 12:55:22;;;;;;;0.10;0.07;;;;;;;;;;5038970;28;20324;-73
2021/12/11 12:57:51;;;;;;;0.00;0.00;;;;;;;;;;5036533;28;20204;-71
2021/12/11 13:00:20;;;;;;;0.07;0.07;;;;;;;;;;5037298;28;20215;-73
2021/12/11 13:02:51;;;;;;;0.00;0.00;;;;;;;;;;5037618;28;20211;-73
2021/12/11 13:05:20;;;;;;;0.00;0.00;;;;;;;;;;5034582;28;20199;-76
2021/12/11 13:07:48;;;;;;;0.00;0.00;;;;;;;;;;5032652;28;20218;-74
2021/12/11 13:10:19;;;;;;;0.00;0.00;;;;;;;;;;5030734;28;20208;-71
2021/12/11 13:12:48;;;;;;;0.27;0.27;;;;;;;;;;5031351;28;20204;-73
2021/12/11 13:15:17;;;;;;;0.10;0.10;;;;;;;;;;5029378;28;20234;-72
2021/12/11 13:17:47;;;;;;;0.03;0.03;;;;;;;;;;5035966;28;20210;-72
2021/12/11 13:20:17;;;;;;;0.83;0.63;;;;;;;;;;5029459;28;20703;-72
2021/12/11 13:22:46;;;;;;;0.10;0.10;;;;;;;;;;5031971;28;20211;-71
2021/12/11 13:25:16;;;;;;;0.50;0.40;;;;;;;;;;5033184;28;20740;-75
2021/12/11 13:27:44;;;;;;;0.10;0.10;;;;;;;;;;5031365;28;20353;-70
2021/12/11 13:30:17;;;;;;;0.17;0.17;;;;;;;;;;5032322;28;21110;-72
2021/12/11 13:32:45;;;;;;;0.00;0.00;;;;;;;;;;5035189;28;20202;-74
2021/12/11 13:35:15;;;;;;;3.83;0.43;;;;;;;;;;5042476;28;20267;-76
2021/12/11 13:37:44;;;;;;;0.43;0.43;;;;;;;;;;5039172;28;20217;-75
2021/12/11 13:40:14;;;;;;;0.50;0.50;;;;;;;;;;5035452;28;20246;-77
2021/12/11 13:42:43;;;;;;;0.10;0.10;;;;;;;;;;5037872;28;20865;-76
2021/12/11 13:45:14;;;;;;;0.40;0.40;;;;;;;;;;5036032;28;20219;-75
2021/12/11 13:47:44;;;;;;;0.00;0.00;;;;;;;;;;5036754;28;20349;-76
2021/12/11 13:50:13;;;;;;;0.00;0.00;;;;;;;;;;5038958;28;20196;-76
2021/12/11 13:52:40;;;;;;;0.00;0.00;;;;;;;;;;5034365;28;20206;-74
2021/12/11 13:55:13;;;;;;;0.00;0.00;;;;;;;;;;5037445;28;20219;-75
2021/12/11 13:57:40;;;;;;;0.10;0.10;;;;;;;;;;5038409;28;20210;-75
2021/12/11 14:00:11;;;;;;;0.10;0.10;;;;;;;;;;5041559;28;20206;-74
2021/12/11 14:02:39;;;;;;;0.00;0.00;;;;;;;;;;5039617;28;20199;-76
2021/12/11 14:05:06;;;;;;;1.00;1.00;;;;;;;;;;5037865;28;20207;-75
2021/12/11 14:07:37;;;;;;;1.07;1.07;;;;;;;;;;5037049;28;20567;-75
2021/12/11 14:10:07;;;;;;;0.40;0.40;;;;;;;;;;5040651;28;20242;-76
2021/12/11 14:12:37;;;;;;;0.20;0.20;;;;;;;;;;5037742;28;20952;-73
2021/12/11 14:15:05;;;;;;;0.30;0.30;;;;;;;;;;5037543;28;20693;-76
2021/12/11 14:17:33;;;;;;;0.70;0.70;;;;;;;;;;5042785;28;20669;-74
2021/12/11 14:20:00;;;;;;;0.33;0.33;;;;;;;;;;5038387;28;20203;-73
2021/12/11 14:22:28;;;;;;;2.00;1.70;;;;;;;;;;5035483;28;20660;-75
2021/12/11 14:24:56;;;;;;;2.67;2.53;;;;;;;;;;5037650;28;20309;-74
2021/12/11 14:27:23;;;;;;;0.00;0.00;;;;;;;;;;5038411;28;20219;-74
2021/12/11 14:29:54;;;;;;;0.20;0.20;;;;;;;;;;5041641;28;20207;-75
2021/12/11 14:32:23;;;;;;;0.13;0.13;;;;;;;;;;5039045;28;20207;-74
2021/12/11 14:34:51;;;;;;;0.00;0.00;;;;;;;;;;5040659;28;20238;-73
2021/12/11 14:37:19;;;;;;;0.17;0.17;;;;;;;;;;5044524;28;20199;-74
2021/12/11 14:39:48;;;;;;;0.20;0.20;;;;;;;;;;5040585;28;20227;-72
2021/12/11 14:42:17;;;;;;;3.87;3.50;;;;;;;;;;5043042;28;21160;-73
2021/12/11 14:44:45;;;;;;;0.13;0.13;;;;;;;;;;5042578;28;20207;-72
2021/12/11 14:47:15;;;;;;;0.13;0.13;;;;;;;;;;5037884;28;20211;-74
2021/12/11 14:49:45;;;;;;;0.33;0.33;;;;;;;;;;5040176;28;20790;-73
2021/12/11 14:52:13;;;;;;;2.77;2.60;;;;;;;;;;5044171;28;21125;-75
2021/12/11 14:54:40;;;;;;;0.80;0.80;;;;;;;;;;5040794;28;20239;-76
2021/12/11 14:57:09;;;;;;;0.37;0.37;;;;;;;;;;5043720;28;20215;-75
2021/12/11 14:59:41;;;;;;;1.07;1.07;;;;;;;;;;5041716;28;20533;-78